Terminal Aerodrome Forecast
Issued by NWS

Home | Current Version | Previous Version | Text Only | Print | Product List | Glossary On
Versions: 1 2 3 4 5 6 7 8 9 10 11 12 13 14 15 16
000
FTUS45 KTFX 282300
TAFLWT
TAF
KLWT 282336Z 2900/2924 VRB06KT P6SM SCT050 BKN080
     FM290400 VRB06KT P6SM SCT080
     FM291200 22006KT P6SM SCT180=

USA.gov is the U.S. government's official web portal to all federal, state and local government web resources and services.